Terminal Aerodrome Forecast
Issued by NWS Cleveland, OH

Home | Current Version | Previous Version | Graphics & Text | Print | Product List | Glossary Off
Versions: 1 2 3 4 5 6 7 8 9 10 11 12 13 14 15 16 17 18

559
FTUS41 KCLE 191746
TAFERI
TAF
KERI 191746Z 1918/2018 18017G25KT 5SM -SHRA OVC020
      TEMPO 1918/1922 2SM -RA OVC008
     FM192300 19015G25KT 4SM -SHRA BR SCT008 OVC015
     FM200400 19015G25KT 6SM BR VCSH BKN025=

USA.gov is the U.S. government's official web portal to all federal, state and local government web resources and services.